createdAt,value
2022-10-18T00:00:43.703Z,15.27
2022-10-18T00:01:43.621Z,15.28
2022-10-18T00:02:43.802Z,15.28
2022-10-18T00:04:43.695Z,15.30
2022-10-18T00:05:43.640Z,15.30
2022-10-18T00:06:43.752Z,15.28
2022-10-18T00:07:43.495Z,15.28
2022-10-18T00:08:43.512Z,15.28
2022-10-18T00:09:43.521Z,15.30
2022-10-18T00:10:43.726Z,15.31
2022-10-18T00:11:43.456Z,15.28
2022-10-18T00:12:43.506Z,15.30
2022-10-18T00:13:43.521Z,15.31
2022-10-18T00:14:43.446Z,15.30
2022-10-18T00:15:43.456Z,15.33
2022-10-18T00:16:43.427Z,15.31
2022-10-18T00:17:43.563Z,15.31
2022-10-18T00:18:43.407Z,15.33
2022-10-18T00:19:43.431Z,15.31
2022-10-18T00:20:44.269Z,15.31
2022-10-18T00:22:43.445Z,15.31
2022-10-18T00:23:43.443Z,15.31
2022-10-18T00:24:43.434Z,15.33
2022-10-18T00:25:43.342Z,15.31
2022-10-18T00:26:43.582Z,15.33
2022-10-18T00:27:43.417Z,15.30
2022-10-18T00:28:43.451Z,15.28
2022-10-18T00:29:43.628Z,15.30
2022-10-18T00:30:43.539Z,15.30
2022-10-18T00:31:43.432Z,15.28
2022-10-18T00:32:43.414Z,15.28
2022-10-18T00:33:43.510Z,15.28
2022-10-18T00:34:43.295Z,15.27
2022-10-18T00:35:43.364Z,15.28
2022-10-18T00:36:43.608Z,15.27
2022-10-18T00:37:43.372Z,15.27
2022-10-18T00:38:43.255Z,15.27
2022-10-18T00:39:43.627Z,15.27
2022-10-18T00:40:43.398Z,15.26
2022-10-18T00:41:43.291Z,15.26
2022-10-18T00:42:43.211Z,15.26
2022-10-18T00:43:43.155Z,15.26
2022-10-18T00:44:43.179Z,15.26
2022-10-18T00:45:43.191Z,15.26
2022-10-18T00:46:43.237Z,15.26
2022-10-18T00:47:43.173Z,15.27
2022-10-18T00:48:43.580Z,15.27
2022-10-18T00:49:43.376Z,15.26
2022-10-18T00:50:43.537Z,15.26
2022-10-18T00:51:43.451Z,15.26
2022-10-18T00:52:43.462Z,15.27
2022-10-18T00:53:43.038Z,15.26
2022-10-18T00:54:43.035Z,15.27
2022-10-18T00:55:43.235Z,15.27
2022-10-18T00:56:43.245Z,15.26
2022-10-18T00:57:43.091Z,15.26
2022-10-18T00:58:43.236Z,15.26
2022-10-18T00:59:43.035Z,15.26
2022-10-18T01:00:43.250Z,15.24
2022-10-18T01:01:42.998Z,15.24
2022-10-18T01:02:43.417Z,15.26
2022-10-18T01:03:43.236Z,15.24
2022-10-18T01:04:43.157Z,15.26
2022-10-18T01:05:42.964Z,15.24
2022-10-18T01:06:43.221Z,15.24
2022-10-18T01:07:42.971Z,15.24
2022-10-18T01:08:43.118Z,15.24
2022-10-18T01:09:42.926Z,15.23
2022-10-18T01:10:42.936Z,15.23
2022-10-18T01:11:43.016Z,15.24
2022-10-18T01:12:43.018Z,15.24
2022-10-18T01:13:42.858Z,15.24
2022-10-18T01:14:42.992Z,15.26
2022-10-18T01:15:42.862Z,15.24
2022-10-18T01:16:42.857Z,15.26
2022-10-18T01:17:42.933Z,15.26
2022-10-18T01:18:42.826Z,15.26
2022-10-18T01:19:42.818Z,15.26
2022-10-18T01:20:42.835Z,15.26
2022-10-18T01:21:42.901Z,15.26
2022-10-18T01:22:42.832Z,15.26
2022-10-18T01:23:42.826Z,15.27
2022-10-18T01:24:42.740Z,15.26
2022-10-18T01:25:42.902Z,15.26
2022-10-18T01:26:43.301Z,15.27
2022-10-18T01:27:42.761Z,15.24
2022-10-18T01:28:42.953Z,15.26
2022-10-18T01:29:43.030Z,15.24
2022-10-18T01:30:42.963Z,15.24
2022-10-18T01:31:42.693Z,15.26
2022-10-18T01:32:42.754Z,15.26
2022-10-18T01:33:42.979Z,15.24
2022-10-18T01:34:42.899Z,15.23
2022-10-18T01:35:42.721Z,15.24
2022-10-18T01:36:42.796Z,15.24
2022-10-18T01:37:42.607Z,15.24
2022-10-18T01:38:42.902Z,15.26
2022-10-18T01:39:42.929Z,15.24
2022-10-18T01:40:42.616Z,15.24
2022-10-18T01:41:42.697Z,15.24
2022-10-18T01:42:42.771Z,15.23
2022-10-18T01:43:42.953Z,15.21
2022-10-18T01:44:42.562Z,15.20
2022-10-18T01:45:42.730Z,15.20
2022-10-18T01:46:42.543Z,15.19
2022-10-18T01:47:42.668Z,15.19
2022-10-18T01:48:42.953Z,15.17
2022-10-18T01:49:42.494Z,15.17
2022-10-18T01:50:42.727Z,15.15
2022-10-18T01:51:42.539Z,15.12
2022-10-18T01:52:42.499Z,15.09
2022-10-18T01:53:42.552Z,15.08
2022-10-18T01:54:42.478Z,15.08
2022-10-18T01:55:42.539Z,15.05
2022-10-18T01:56:42.844Z,15.05
2022-10-18T01:57:42.611Z,15.05
2022-10-18T01:58:42.797Z,15.03
2022-10-18T01:59:42.530Z,15.03
2022-10-18T02:00:42.832Z,15.03
2022-10-18T02:01:42.430Z,15.01
2022-10-18T02:02:42.428Z,15.03
2022-10-18T02:03:42.387Z,15.02
2022-10-18T02:04:42.352Z,15.03
2022-10-18T02:05:42.407Z,15.01
2022-10-18T02:06:42.490Z,15.01
2022-10-18T02:07:42.691Z,14.99
2022-10-18T02:08:42.613Z,14.98
2022-10-18T02:09:42.542Z,14.98
2022-10-18T02:10:42.320Z,14.94
2022-10-18T02:11:42.506Z,14.93
2022-10-18T02:12:42.311Z,14.93
2022-10-18T02:13:42.388Z,14.91
2022-10-18T02:14:42.533Z,14.91
2022-10-18T02:15:42.332Z,14.90
2022-10-18T02:16:42.810Z,14.91
2022-10-18T02:17:42.400Z,14.90
2022-10-18T02:18:42.242Z,14.90
2022-10-18T02:19:42.199Z,14.90
2022-10-18T02:20:42.333Z,14.88
2022-10-18T02:21:42.351Z,14.88
2022-10-18T02:22:42.468Z,14.88
2022-10-18T02:23:42.775Z,14.88
2022-10-18T02:24:42.413Z,14.88
2022-10-18T02:25:42.470Z,14.87
2022-10-18T02:26:42.152Z,14.87
2022-10-18T02:27:42.296Z,14.84
2022-10-18T02:28:42.128Z,14.84
2022-10-18T02:29:42.439Z,14.84
2022-10-18T02:30:42.138Z,14.84
2022-10-18T02:31:42.497Z,14.84
2022-10-18T02:32:42.382Z,14.83
2022-10-18T02:33:42.231Z,14.86
2022-10-18T02:34:42.016Z,14.84
2022-10-18T02:35:42.279Z,14.86
2022-10-18T02:36:42.327Z,14.84
2022-10-18T02:37:42.005Z,14.83
2022-10-18T02:38:42.030Z,14.81
2022-10-18T02:39:42.312Z,14.81
2022-10-18T02:40:42.090Z,14.81
2022-10-18T02:41:41.977Z,14.83
2022-10-18T02:42:42.078Z,14.81
2022-10-18T02:43:42.066Z,14.80
2022-10-18T02:44:41.992Z,14.80
2022-10-18T02:45:41.930Z,14.80
2022-10-18T02:46:42.079Z,14.80
2022-10-18T02:47:42.270Z,14.78
2022-10-18T02:48:41.922Z,14.80
2022-10-18T02:49:41.875Z,14.75
2022-10-18T02:50:41.969Z,14.78
2022-10-18T02:51:42.329Z,14.80
2022-10-18T02:52:41.906Z,14.78
2022-10-18T02:53:42.123Z,14.78
2022-10-18T02:54:42.080Z,14.80
2022-10-18T02:55:42.687Z,14.80
2022-10-18T02:56:42.651Z,14.81
2022-10-18T02:57:42.141Z,14.81
2022-10-18T02:58:41.803Z,14.81
2022-10-18T02:59:42.171Z,14.81
2022-10-18T03:00:42.009Z,14.83
2022-10-18T03:01:41.954Z,14.83
2022-10-18T03:02:41.928Z,14.84
2022-10-18T03:03:41.791Z,14.86
2022-10-18T03:04:42.008Z,14.84
2022-10-18T03:05:42.156Z,14.86
2022-10-18T03:06:41.972Z,14.86
2022-10-18T03:07:41.781Z,14.87
2022-10-18T03:08:41.908Z,14.87
2022-10-18T03:09:41.848Z,14.87
2022-10-18T03:10:41.710Z,14.88
2022-10-18T03:11:41.707Z,14.90
2022-10-18T03:12:42.336Z,14.90
2022-10-18T03:13:41.702Z,14.90
2022-10-18T03:14:41.686Z,14.90
2022-10-18T03:15:42.055Z,14.90
2022-10-18T03:16:41.861Z,14.91
2022-10-18T03:17:41.827Z,14.91
2022-10-18T03:18:41.855Z,14.93
2022-10-18T03:19:42.062Z,14.93
2022-10-18T03:20:41.598Z,14.94
2022-10-18T03:21:41.589Z,14.93
2022-10-18T03:22:41.576Z,14.94
2022-10-18T03:23:41.809Z,14.93
2022-10-18T03:24:41.738Z,14.91
2022-10-18T03:25:45.604Z,14.94
2022-10-18T03:26:42.049Z,14.95
2022-10-18T03:27:41.783Z,14.94
2022-10-18T03:28:41.782Z,14.95
2022-10-18T03:29:42.053Z,14.98
2022-10-18T03:30:41.833Z,14.94
2022-10-18T03:31:42.007Z,14.94
2022-10-18T03:32:41.491Z,14.95
2022-10-18T03:33:41.795Z,14.94
2022-10-18T03:34:41.552Z,14.94
2022-10-18T03:35:41.912Z,14.95
2022-10-18T03:36:41.535Z,14.94
2022-10-18T03:37:41.556Z,14.95
2022-10-18T03:38:41.649Z,14.94
2022-10-18T03:39:41.630Z,14.98
2022-10-18T03:40:42.176Z,14.95
2022-10-18T03:41:42.044Z,14.95
2022-10-18T03:42:41.513Z,14.95
2022-10-18T03:43:41.685Z,14.98
2022-10-18T03:44:41.405Z,14.95
2022-10-18T03:45:41.347Z,14.95
2022-10-18T03:46:41.711Z,14.94
2022-10-18T03:47:41.366Z,14.94
2022-10-18T03:48:41.499Z,14.94
2022-10-18T03:49:41.420Z,14.93
2022-10-18T03:50:41.541Z,14.93
2022-10-18T03:51:41.872Z,14.91
2022-10-18T03:52:41.361Z,14.90
2022-10-18T03:53:41.439Z,14.90
2022-10-18T03:54:41.436Z,14.91
2022-10-18T03:55:41.485Z,14.91
2022-10-18T03:56:41.540Z,14.91
2022-10-18T03:57:41.454Z,14.91
2022-10-18T03:58:41.223Z,14.93
2022-10-18T03:59:41.218Z,14.94
2022-10-18T04:00:41.221Z,14.95
2022-10-18T04:01:41.333Z,14.95
2022-10-18T04:02:41.197Z,14.95
2022-10-18T04:03:41.914Z,14.98
2022-10-18T04:04:41.165Z,14.95
2022-10-18T04:05:41.287Z,14.95
2022-10-18T04:06:41.706Z,14.98
2022-10-18T04:07:41.350Z,14.98
2022-10-18T04:08:41.213Z,14.98
2022-10-18T04:09:41.114Z,14.99
2022-10-18T04:10:41.235Z,14.99
2022-10-18T04:11:41.105Z,14.99
2022-10-18T04:12:41.291Z,15.01
2022-10-18T04:13:41.058Z,15.01
2022-10-18T04:14:41.108Z,15.01
2022-10-18T04:15:41.133Z,15.01
2022-10-18T04:16:41.049Z,15.01
2022-10-18T04:17:41.339Z,15.03
2022-10-18T04:18:41.257Z,15.01
2022-10-18T04:19:41.039Z,15.03
2022-10-18T04:20:41.085Z,15.03
2022-10-18T04:21:40.996Z,15.03
2022-10-18T04:22:40.959Z,15.05
2022-10-18T04:23:40.960Z,15.05
2022-10-18T04:24:41.174Z,15.05
2022-10-18T04:25:40.987Z,15.03
2022-10-18T04:26:41.174Z,15.05
2022-10-18T04:27:41.072Z,15.05
2022-10-18T04:28:41.254Z,15.03
2022-10-18T04:29:41.395Z,15.05
2022-10-18T04:30:41.007Z,15.03
2022-10-18T04:31:41.003Z,15.03
2022-10-18T04:32:41.081Z,15.02
2022-10-18T04:33:40.876Z,15.05
2022-10-18T04:34:40.881Z,15.06
2022-10-18T04:35:41.006Z,15.05
2022-10-18T04:36:41.367Z,15.05
2022-10-18T04:37:40.948Z,15.06
2022-10-18T04:38:40.969Z,15.05
2022-10-18T04:39:40.972Z,15.06
2022-10-18T04:40:40.872Z,15.08
2022-10-18T04:41:40.840Z,15.08
2022-10-18T04:42:40.824Z,15.08
2022-10-18T04:43:40.848Z,15.06
2022-10-18T04:44:40.836Z,15.08
2022-10-18T04:45:40.864Z,15.11
2022-10-18T04:46:40.726Z,15.09
2022-10-18T04:47:40.791Z,15.09
2022-10-18T04:48:41.040Z,15.11
2022-10-18T04:49:40.695Z,15.11
2022-10-18T04:50:40.789Z,15.11
2022-10-18T04:51:40.757Z,15.11
2022-10-18T04:52:40.966Z,15.12
2022-10-18T04:53:40.669Z,15.11
2022-10-18T04:54:40.669Z,15.11
2022-10-18T04:55:40.693Z,15.12
2022-10-18T04:56:40.686Z,15.12
2022-10-18T04:57:40.623Z,15.11
2022-10-18T04:58:40.659Z,15.13
2022-10-18T04:59:40.812Z,15.13
2022-10-18T05:00:40.642Z,15.13
2022-10-18T05:01:40.789Z,15.13
2022-10-18T05:02:40.750Z,15.15
2022-10-18T05:03:40.588Z,15.13
2022-10-18T05:04:40.587Z,15.15
2022-10-18T05:06:00.168Z,15.15
2022-10-18T05:06:40.922Z,15.15
2022-10-18T05:07:40.541Z,15.15
2022-10-18T05:08:40.786Z,15.17
2022-10-18T05:09:40.876Z,15.15
2022-10-18T05:10:40.509Z,15.17
2022-10-18T05:11:40.524Z,15.17
2022-10-18T05:12:40.477Z,15.17
2022-10-18T05:13:40.486Z,15.17
2022-10-18T05:14:40.672Z,15.19
2022-10-18T05:15:40.512Z,15.19
2022-10-18T05:16:40.852Z,15.19
2022-10-18T05:17:40.460Z,15.20
2022-10-18T05:18:40.437Z,15.20
2022-10-18T05:19:40.593Z,15.19
2022-10-18T05:20:40.485Z,15.19
2022-10-18T05:21:40.428Z,15.15
2022-10-18T05:22:40.507Z,15.15
2022-10-18T05:23:40.378Z,15.15
2022-10-18T05:24:40.381Z,15.15
2022-10-18T05:25:40.569Z,15.15
2022-10-18T05:26:40.395Z,15.15
2022-10-18T05:27:40.558Z,15.17
2022-10-18T05:28:41.327Z,15.17
2022-10-18T05:29:40.711Z,15.17
2022-10-18T05:30:40.357Z,15.19
2022-10-18T05:31:40.372Z,15.19
2022-10-18T05:32:40.420Z,15.19
2022-10-18T05:33:40.413Z,15.19
2022-10-18T05:34:40.420Z,15.19
2022-10-18T05:35:40.245Z,15.19
2022-10-18T05:36:40.469Z,15.20
2022-10-18T05:37:40.614Z,15.19
2022-10-18T05:38:40.322Z,15.21
2022-10-18T05:39:40.323Z,15.20
2022-10-18T05:40:40.327Z,15.21
2022-10-18T05:41:40.213Z,15.20
2022-10-18T05:42:40.193Z,15.23
2022-10-18T05:43:40.259Z,15.20
2022-10-18T05:44:40.340Z,15.20
2022-10-18T05:45:40.318Z,15.21
2022-10-18T05:46:40.314Z,15.21
2022-10-18T05:47:40.121Z,15.21
2022-10-18T05:48:40.125Z,15.20
2022-10-18T05:49:40.317Z,15.20
2022-10-18T05:50:40.580Z,15.23
2022-10-18T05:51:40.285Z,15.21
2022-10-18T05:52:40.550Z,15.21
2022-10-18T05:53:40.094Z,15.23
2022-10-18T05:54:40.075Z,15.23
2022-10-18T05:55:40.031Z,15.23
2022-10-18T05:56:40.186Z,15.23
2022-10-18T05:57:40.034Z,15.23
2022-10-18T05:58:40.080Z,15.23
2022-10-18T05:59:40.012Z,15.23
2022-10-18T06:00:39.980Z,15.21
2022-10-18T06:01:39.971Z,15.21
2022-10-18T06:02:40.276Z,15.21
2022-10-18T06:03:39.976Z,15.21
2022-10-18T06:04:40.134Z,15.21
2022-10-18T06:06:40.067Z,15.23
2022-10-18T06:07:39.926Z,15.23
2022-10-18T06:08:39.960Z,15.23
2022-10-18T06:09:39.919Z,15.20
2022-10-18T06:10:40.186Z,15.21
2022-10-18T06:11:39.904Z,15.21
2022-10-18T06:12:40.232Z,15.21
2022-10-18T06:13:39.989Z,15.21
2022-10-18T06:14:40.154Z,15.23
2022-10-18T06:15:39.881Z,15.21
2022-10-18T06:16:39.925Z,15.21
2022-10-18T06:17:40.129Z,15.21
2022-10-18T06:18:39.963Z,15.21
2022-10-18T06:19:39.797Z,15.21
2022-10-18T06:20:39.881Z,15.20
2022-10-18T06:21:39.796Z,15.21
2022-10-18T06:22:39.835Z,15.20
2022-10-18T06:23:40.119Z,15.20
2022-10-18T06:24:39.913Z,15.21
2022-10-18T06:25:39.767Z,15.21
2022-10-18T06:26:39.952Z,15.23
2022-10-18T06:27:39.942Z,15.23
2022-10-18T06:28:39.801Z,15.23
2022-10-18T06:29:39.745Z,15.23
2022-10-18T06:30:39.722Z,15.23
2022-10-18T06:31:40.139Z,15.24
2022-10-18T06:32:39.701Z,15.24
2022-10-18T06:33:39.657Z,15.24
2022-10-18T06:34:39.823Z,15.23
2022-10-18T06:35:39.819Z,15.23
2022-10-18T06:36:39.751Z,15.21
2022-10-18T06:37:40.274Z,15.23
2022-10-18T06:38:39.739Z,15.23
2022-10-18T06:39:39.667Z,15.21
2022-10-18T06:40:39.711Z,15.23
2022-10-18T06:41:40.659Z,15.21
2022-10-18T06:42:39.693Z,15.20
2022-10-18T06:43:39.598Z,15.20
2022-10-18T06:44:39.673Z,15.20
2022-10-18T06:45:39.709Z,15.21
2022-10-18T06:46:39.552Z,15.21
2022-10-18T06:47:39.598Z,15.21
2022-10-18T06:48:39.652Z,15.20
2022-10-18T06:49:39.666Z,15.21
2022-10-18T06:50:39.558Z,15.21
2022-10-18T06:51:39.722Z,15.23
2022-10-18T06:52:39.849Z,15.23
2022-10-18T06:53:44.091Z,15.24
2022-10-18T06:54:39.536Z,15.24
2022-10-18T06:55:39.685Z,15.23
2022-10-18T06:56:39.622Z,15.23
2022-10-18T06:57:39.642Z,15.24
2022-10-18T06:58:39.525Z,15.24
2022-10-18T06:59:39.559Z,15.24
2022-10-18T07:00:39.420Z,15.26
2022-10-18T07:01:39.500Z,15.24
2022-10-18T07:02:39.442Z,15.26
2022-10-18T07:03:39.371Z,15.26
2022-10-18T07:04:39.349Z,15.26
2022-10-18T07:05:39.320Z,15.27
2022-10-18T07:06:39.322Z,15.28
2022-10-18T07:07:39.399Z,15.28
2022-10-18T07:08:39.350Z,15.30
2022-10-18T07:09:39.339Z,15.31
2022-10-18T07:10:39.319Z,15.35
2022-10-18T07:11:39.342Z,15.35
2022-10-18T07:12:39.291Z,15.36
2022-10-18T07:13:39.279Z,15.39
2022-10-18T07:14:39.300Z,15.41
2022-10-18T07:15:39.302Z,15.41
2022-10-18T07:16:39.260Z,15.45
2022-10-18T07:17:39.226Z,15.45
2022-10-18T07:18:39.228Z,15.48
2022-10-18T07:19:39.213Z,15.49
2022-10-18T07:20:39.322Z,15.54
2022-10-18T07:21:39.191Z,15.56
2022-10-18T07:22:39.430Z,15.59
2022-10-18T07:23:39.215Z,15.60
2022-10-18T07:24:39.541Z,15.64
2022-10-18T07:25:39.169Z,15.63
2022-10-18T07:26:39.329Z,15.66
2022-10-18T07:27:39.311Z,15.67
2022-10-18T07:28:39.309Z,15.70
2022-10-18T07:29:39.243Z,15.72
2022-10-18T07:30:39.129Z,15.75
2022-10-18T07:31:39.311Z,15.76
2022-10-18T07:32:39.295Z,15.79
2022-10-18T07:33:39.281Z,15.81
2022-10-18T07:34:39.246Z,15.84
2022-10-18T07:35:39.258Z,15.85
2022-10-18T07:36:39.073Z,15.86
2022-10-18T07:37:39.175Z,15.88
2022-10-18T07:38:39.081Z,15.88
2022-10-18T07:39:39.234Z,15.88
2022-10-18T07:40:39.082Z,15.89
2022-10-18T07:41:38.982Z,15.92
2022-10-18T07:42:38.980Z,15.89
2022-10-18T07:43:39.153Z,15.92
2022-10-18T07:44:39.235Z,15.92
2022-10-18T07:45:39.037Z,15.89
2022-10-18T07:46:38.932Z,15.92
2022-10-18T07:47:39.415Z,15.89
2022-10-18T07:48:38.920Z,15.89
2022-10-18T07:49:39.023Z,15.89
2022-10-18T07:50:39.080Z,15.88
2022-10-18T07:51:39.196Z,15.88
2022-10-18T07:52:39.026Z,15.88
2022-10-18T07:53:39.452Z,15.86
2022-10-18T07:54:39.047Z,15.89
2022-10-18T07:55:39.128Z,15.88
2022-10-18T07:56:39.207Z,15.88
2022-10-18T07:57:39.137Z,15.88
2022-10-18T07:58:38.976Z,15.89
2022-10-18T07:59:39.225Z,15.88
2022-10-18T08:00:39.140Z,15.92
2022-10-18T08:01:38.832Z,15.93
2022-10-18T08:02:38.856Z,15.93
2022-10-18T08:03:38.817Z,15.93
2022-10-18T08:04:38.984Z,15.93
2022-10-18T08:05:39.003Z,15.92
2022-10-18T08:06:38.911Z,15.89
2022-10-18T08:07:38.788Z,15.89
2022-10-18T08:08:39.072Z,15.89
2022-10-18T08:09:38.746Z,15.92
2022-10-18T08:10:38.813Z,15.92
2022-10-18T08:11:38.884Z,15.92
2022-10-18T08:12:38.720Z,15.93
2022-10-18T08:13:38.719Z,15.94
2022-10-18T08:14:38.797Z,15.96
2022-10-18T08:15:38.793Z,15.94
2022-10-18T08:16:38.869Z,15.94
2022-10-18T08:17:38.794Z,15.93
2022-10-18T08:18:38.827Z,15.92
2022-10-18T08:19:44.621Z,15.92
2022-10-18T08:20:38.655Z,15.92
2022-10-18T08:21:38.603Z,15.89
2022-10-18T08:22:38.629Z,15.89
2022-10-18T08:23:38.592Z,15.89
2022-10-18T08:24:39.269Z,15.89
2022-10-18T08:25:39.031Z,15.85
2022-10-18T08:26:38.586Z,15.85
2022-10-18T08:27:38.637Z,15.85
2022-10-18T08:28:38.703Z,15.84
2022-10-18T08:29:38.772Z,15.84
2022-10-18T08:30:38.532Z,15.82
2022-10-18T08:31:38.538Z,15.79
2022-10-18T08:32:38.544Z,15.76
2022-10-18T08:33:38.496Z,15.75
2022-10-18T08:35:38.533Z,15.75
2022-10-18T08:36:38.452Z,15.76
2022-10-18T08:37:38.627Z,15.78
2022-10-18T08:38:38.456Z,15.78
2022-10-18T08:39:38.634Z,15.81
2022-10-18T08:40:38.394Z,15.78
2022-10-18T08:41:38.511Z,15.79
2022-10-18T08:42:38.586Z,15.78
2022-10-18T08:43:38.389Z,15.78
2022-10-18T08:44:38.606Z,15.75
2022-10-18T08:45:42.229Z,15.75
2022-10-18T08:46:38.348Z,15.76
2022-10-18T08:47:38.742Z,15.78
2022-10-18T08:48:38.365Z,15.79
2022-10-18T08:49:38.558Z,15.81
2022-10-18T08:50:38.515Z,15.84
2022-10-18T08:51:38.287Z,15.85
2022-10-18T08:52:38.407Z,15.88
2022-10-18T08:53:39.950Z,15.89
2022-10-18T08:54:38.406Z,15.86
2022-10-18T08:55:38.281Z,15.89
2022-10-18T08:56:38.520Z,15.89
2022-10-18T08:57:38.502Z,15.92
2022-10-18T08:58:38.592Z,15.93
2022-10-18T08:59:38.524Z,15.93
2022-10-18T09:00:38.325Z,15.93
2022-10-18T09:01:38.327Z,15.96
2022-10-18T09:02:38.384Z,15.96
2022-10-18T09:03:38.495Z,15.99
2022-10-18T09:04:38.321Z,16.00
2022-10-18T09:05:38.386Z,16.00
2022-10-18T09:06:38.316Z,16.03
2022-10-18T09:07:38.431Z,16.00
2022-10-18T09:08:38.159Z,15.99
2022-10-18T09:09:38.343Z,15.99
2022-10-18T09:10:38.329Z,15.97
2022-10-18T09:11:38.107Z,15.97
2022-10-18T09:12:38.329Z,15.96
2022-10-18T09:13:38.102Z,15.96
2022-10-18T09:14:38.405Z,15.93
2022-10-18T09:15:38.043Z,15.92
2022-10-18T09:16:38.049Z,15.89
2022-10-18T09:17:38.101Z,15.92
2022-10-18T09:18:38.055Z,15.92
2022-10-18T09:19:38.044Z,15.92
2022-10-18T09:20:38.053Z,15.93
2022-10-18T09:21:38.041Z,15.93
2022-10-18T09:22:38.024Z,15.97
2022-10-18T09:23:41.045Z,15.99
2022-10-18T09:24:38.408Z,16.01
2022-10-18T09:25:37.971Z,16.03
2022-10-18T09:26:37.985Z,16.03
2022-10-18T09:27:37.950Z,16.03
2022-10-18T09:28:38.050Z,16.01
2022-10-18T09:29:37.989Z,16.00
2022-10-18T09:30:38.076Z,15.96
2022-10-18T09:31:37.927Z,15.89
2022-10-18T09:32:37.935Z,15.88
2022-10-18T09:33:38.012Z,15.86
2022-10-18T09:34:37.870Z,15.89
2022-10-18T09:35:37.941Z,15.92
2022-10-18T09:36:38.130Z,15.89
2022-10-18T09:37:38.275Z,15.92
2022-10-18T09:38:37.919Z,15.94
2022-10-18T09:39:37.830Z,16.00
2022-10-18T09:40:37.840Z,16.03
2022-10-18T09:41:37.934Z,16.09
2022-10-18T09:42:37.918Z,16.14
2022-10-18T09:43:37.974Z,16.20
2022-10-18T09:44:37.853Z,16.26
2022-10-18T09:45:38.088Z,16.35
2022-10-18T09:46:37.772Z,16.44
2022-10-18T09:47:38.051Z,16.53
2022-10-18T09:48:38.179Z,16.58
2022-10-18T09:49:38.077Z,16.67
2022-10-18T09:50:37.974Z,16.80
2022-10-18T09:51:37.750Z,17.03
2022-10-18T09:52:37.789Z,17.28
2022-10-18T09:53:37.770Z,17.51
2022-10-18T09:54:37.786Z,17.66
2022-10-18T09:55:37.637Z,17.78
2022-10-18T09:56:40.857Z,17.81
2022-10-18T09:57:37.657Z,17.79
2022-10-18T09:58:37.858Z,17.81
2022-10-18T09:59:38.142Z,17.84
2022-10-18T10:00:37.711Z,17.85
2022-10-18T10:01:37.711Z,17.85
2022-10-18T10:02:38.079Z,17.64
2022-10-18T10:03:37.743Z,17.53
2022-10-18T10:04:37.691Z,17.44
2022-10-18T10:05:37.636Z,17.41
2022-10-18T10:06:37.687Z,17.38
2022-10-18T10:07:37.964Z,17.30
2022-10-18T10:08:37.557Z,17.28
2022-10-18T10:09:37.761Z,17.28
2022-10-18T10:10:37.623Z,17.29
2022-10-18T10:11:37.622Z,17.32
2022-10-18T10:12:37.790Z,17.33
2022-10-18T10:13:37.737Z,17.36
2022-10-18T10:14:37.811Z,17.40
2022-10-18T10:15:39.438Z,17.44
2022-10-18T10:16:37.466Z,17.48
2022-10-18T10:17:37.543Z,17.55
2022-10-18T10:18:37.492Z,17.69
2022-10-18T10:19:37.715Z,17.87
2022-10-18T10:20:38.019Z,18.12
2022-10-18T10:21:37.423Z,18.58
2022-10-18T10:22:38.307Z,18.86
2022-10-18T10:23:37.656Z,18.95
2022-10-18T10:24:37.459Z,18.98
2022-10-18T10:25:37.422Z,18.92
2022-10-18T10:26:37.672Z,18.82
2022-10-18T10:27:37.412Z,18.70
2022-10-18T10:28:37.485Z,18.54
2022-10-18T10:29:44.621Z,18.37
2022-10-18T10:30:37.346Z,18.19
2022-10-18T10:31:37.459Z,18.06
2022-10-18T10:32:37.381Z,17.94
2022-10-18T10:33:37.538Z,17.84
2022-10-18T10:34:39.835Z,17.81
2022-10-18T10:35:53.922Z,17.89
2022-10-18T10:36:37.302Z,18.28
2022-10-18T10:37:37.309Z,18.61
2022-10-18T10:38:37.534Z,18.76
2022-10-18T10:39:37.227Z,18.79
2022-10-18T10:40:37.235Z,18.82
2022-10-18T10:41:37.427Z,18.92
2022-10-18T10:42:37.251Z,19.28
2022-10-18T10:43:39.193Z,19.69
2022-10-18T10:44:37.489Z,20.05
2022-10-18T10:45:37.189Z,20.47
2022-10-18T10:46:37.563Z,20.91
2022-10-18T10:47:37.181Z,21.27
2022-10-18T10:48:37.131Z,21.46
2022-10-18T10:49:41.355Z,21.75
2022-10-18T10:50:37.964Z,21.82
2022-10-18T10:51:37.256Z,22.12
2022-10-18T10:52:37.714Z,22.46
2022-10-18T10:53:37.496Z,22.83
2022-10-18T10:54:37.219Z,23.07
2022-10-18T10:55:37.436Z,23.12
2022-10-18T10:56:37.491Z,23.34
2022-10-18T10:57:37.549Z,23.62
2022-10-18T10:58:37.045Z,23.71
2022-10-18T10:59:37.184Z,23.64
2022-10-18T11:00:37.129Z,23.43
2022-10-18T11:01:37.204Z,23.14
2022-10-18T11:02:37.440Z,22.78
2022-10-18T11:03:37.844Z,22.34
2022-10-18T11:04:37.144Z,21.99
2022-10-18T11:05:37.536Z,21.53
2022-10-18T11:06:37.277Z,21.06
2022-10-18T11:07:37.054Z,21.01
2022-10-18T11:08:37.574Z,21.16
2022-10-18T11:09:37.159Z,21.44
2022-10-18T11:10:36.938Z,21.79
2022-10-18T11:11:37.194Z,22.14
2022-10-18T11:12:37.198Z,22.46
2022-10-18T11:13:37.181Z,22.77
2022-10-18T11:14:37.240Z,23.09
2022-10-18T11:15:37.137Z,23.46
2022-10-18T11:16:37.203Z,23.80
2022-10-18T11:17:37.122Z,24.04
2022-10-18T11:18:37.048Z,24.19
2022-10-18T11:19:37.505Z,24.31
2022-10-18T11:20:36.888Z,24.35
2022-10-18T11:21:36.862Z,24.49
2022-10-18T11:22:36.914Z,24.61
2022-10-18T11:23:36.855Z,24.79
2022-10-18T11:24:36.793Z,24.64
2022-10-18T11:25:36.872Z,24.42
2022-10-18T11:26:40.931Z,24.34
2022-10-18T11:27:36.800Z,24.26
2022-10-18T11:28:36.883Z,24.01
2022-10-18T11:29:36.874Z,23.95
2022-10-18T11:30:36.759Z,23.98
2022-10-18T11:31:37.026Z,24.13
2022-10-18T11:32:36.773Z,24.31
2022-10-18T11:34:03.553Z,24.41
2022-10-18T11:34:36.726Z,24.24
2022-10-18T11:35:36.696Z,23.87
2022-10-18T11:36:36.947Z,23.55
2022-10-18T11:37:38.530Z,23.07
2022-10-18T11:38:36.818Z,22.56
2022-10-18T11:39:36.762Z,22.07
2022-10-18T11:40:36.882Z,21.88
2022-10-18T11:41:36.651Z,21.95
2022-10-18T11:42:39.947Z,22.12
2022-10-18T11:44:00.672Z,22.37
2022-10-18T11:44:37.320Z,22.69
2022-10-18T11:45:37.815Z,23.01
2022-10-18T11:46:37.977Z,23.38
2022-10-18T11:47:37.097Z,23.70
2022-10-18T11:48:36.710Z,24.00
2022-10-18T11:49:36.703Z,24.22
2022-10-18T11:50:36.964Z,24.35
2022-10-18T11:51:55.909Z,24.32
2022-10-18T11:52:36.980Z,23.77
2022-10-18T11:53:36.962Z,23.72
2022-10-18T11:54:36.810Z,23.86
2022-10-18T11:55:37.369Z,24.01
2022-10-18T11:56:36.694Z,24.20
2022-10-18T11:57:36.945Z,23.97
2022-10-18T11:58:36.556Z,23.80
2022-10-18T11:59:36.624Z,23.89
2022-10-18T12:00:36.540Z,24.05
2022-10-18T12:01:36.520Z,23.92
2022-10-18T12:02:37.098Z,23.70
2022-10-18T12:03:36.529Z,23.53
2022-10-18T12:04:48.887Z,23.29
2022-10-18T12:05:36.820Z,23.29
2022-10-18T12:06:36.670Z,23.15
2022-10-18T12:07:36.765Z,23.11
2022-10-18T12:08:38.094Z,23.26
2022-10-18T12:09:37.382Z,23.45
2022-10-18T12:10:45.771Z,23.31
2022-10-18T12:11:36.549Z,23.43
2022-10-18T12:12:36.868Z,23.01
2022-10-18T12:13:36.896Z,22.62
2022-10-18T12:14:37.056Z,22.09
2022-10-18T12:15:36.343Z,21.66
2022-10-18T12:16:50.898Z,21.35
2022-10-18T12:17:51.179Z,21.38
2022-10-18T12:18:36.320Z,21.51
2022-10-18T12:19:36.695Z,21.71
2022-10-18T12:20:36.574Z,22.01
2022-10-18T12:21:36.474Z,22.37
2022-10-18T12:22:36.652Z,22.68
2022-10-18T12:23:36.421Z,22.92
2022-10-18T12:24:36.418Z,23.04
2022-10-18T12:25:36.630Z,23.17
2022-10-18T12:26:36.365Z,23.20
2022-10-18T12:27:36.377Z,23.22
2022-10-18T12:28:36.468Z,23.26
2022-10-18T12:29:36.361Z,23.38
2022-10-18T12:30:36.370Z,23.49
2022-10-18T12:31:36.331Z,23.53
2022-10-18T12:32:36.377Z,23.64
2022-10-18T12:33:36.394Z,23.58
2022-10-18T12:34:36.400Z,23.52
2022-10-18T12:35:36.145Z,23.55
2022-10-18T12:36:36.238Z,23.61
2022-10-18T12:37:36.367Z,23.58
2022-10-18T12:38:36.139Z,23.57
2022-10-18T12:39:43.617Z,23.64
2022-10-18T12:40:36.165Z,23.72
2022-10-18T12:41:36.378Z,23.72
2022-10-18T12:42:36.066Z,23.68
2022-10-18T12:43:36.534Z,23.55
2022-10-18T12:44:36.076Z,23.14
2022-10-18T12:45:36.059Z,22.64
2022-10-18T12:46:36.036Z,22.12
2022-10-18T12:47:36.107Z,21.67
2022-10-18T12:48:36.242Z,21.29
2022-10-18T12:49:37.423Z,21.23
2022-10-18T12:50:36.124Z,21.32
2022-10-18T12:51:36.095Z,21.48
2022-10-18T12:52:36.068Z,21.69
2022-10-18T12:53:36.005Z,21.88
2022-10-18T12:54:36.374Z,21.92
2022-10-18T12:55:36.018Z,22.02
2022-10-18T12:56:36.309Z,22.19